sensor_id;sensor_type;location;lat;lon;timestamp;pressure;altitude;pressure_sealevel;temperature;humidity
53506;BME280;39388;50.936;6.848;2023-03-20T00:00:20;101359.13;;;11.06;79.73
53506;BME280;39388;50.936;6.848;2023-03-20T00:02:52;101349.66;;;11.00;79.92
53506;BME280;39388;50.936;6.848;2023-03-20T00:05:23;101354.84;;;11.02;79.78
53506;BME280;39388;50.936;6.848;2023-03-20T00:07:55;101353.09;;;10.98;79.76
53506;BME280;39388;50.936;6.848;2023-03-20T00:10:33;101360.84;;;11.02;79.77
53506;BME280;39388;50.936;6.848;2023-03-20T00:13:06;101353.97;;;11.05;80.14
53506;BME280;39388;50.936;6.848;2023-03-20T00:15:41;101358.25;;;11.02;80.00
53506;BME280;39388;50.936;6.848;2023-03-20T00:18:15;101359.16;;;11.03;79.79
53506;BME280;39388;50.936;6.848;2023-03-20T00:20:51;101353.97;;;11.00;80.13
53506;BME280;39388;50.936;6.848;2023-03-20T00:23:22;101349.66;;;10.94;79.70
53506;BME280;39388;50.936;6.848;2023-03-20T00:25:53;101360.00;;;10.97;79.63
53506;BME280;39388;50.936;6.848;2023-03-20T00:28:43;101373.72;;;10.99;79.51
53506;BME280;39388;50.936;6.848;2023-03-20T00:31:24;101372.88;;;10.97;79.68
53506;BME280;39388;50.936;6.848;2023-03-20T00:33:58;101373.75;;;10.96;79.59
53506;BME280;39388;50.936;6.848;2023-03-20T00:36:29;101366.81;;;10.87;79.32
53506;BME280;39388;50.936;6.848;2023-03-20T00:39:00;101386.63;;;10.93;79.03
53506;BME280;39388;50.936;6.848;2023-03-20T00:46:46;101372.81;;;10.83;79.09
53506;BME280;39388;50.936;6.848;2023-03-20T00:49:21;101388.34;;;10.90;78.92
53506;BME280;39388;50.936;6.848;2023-03-20T00:52:17;101355.56;;;10.68;78.70
53506;BME280;39388;50.936;6.848;2023-03-20T00:54:57;101353.84;;;10.67;78.55
53506;BME280;39388;50.936;6.848;2023-03-20T00:57:58;101390.88;;;10.82;78.58
53506;BME280;39388;50.936;6.848;2023-03-20T01:00:51;101385.69;;;10.79;78.72
53506;BME280;39388;50.936;6.848;2023-03-20T01:03:28;101349.44;;;10.51;78.38
53506;BME280;39388;50.936;6.848;2023-03-20T01:06:07;101306.34;;;10.26;78.34
53506;BME280;39388;50.936;6.848;2023-03-20T01:08:46;101358.94;;;10.55;78.56
53506;BME280;39388;50.936;6.848;2023-03-20T01:12:09;101367.56;;;10.62;79.18
53506;BME280;39388;50.936;6.848;2023-03-20T01:14:57;101369.25;;;10.61;78.92
53506;BME280;39388;50.936;6.848;2023-03-20T03:54:27;101379.84;;;9.86;80.92
53506;BME280;39388;50.936;6.848;2023-03-20T04:15:46;101355.72;;;9.73;80.06
53506;BME280;39388;50.936;6.848;2023-03-20T04:26:46;101377.25;;;9.79;80.04
53506;BME280;39388;50.936;6.848;2023-03-20T04:48:06;101372.63;;;9.46;80.17
53506;BME280;39388;50.936;6.848;2023-03-20T04:50:38;101332.88;;;9.17;80.22
53506;BME280;39388;50.936;6.848;2023-03-20T04:53:10;101364.00;;;9.42;80.44
53506;BME280;39388;50.936;6.848;2023-03-20T04:55:42;101315.63;;;9.09;80.37
53506;BME280;39388;50.936;6.848;2023-03-20T04:58:52;101367.44;;;9.43;80.33
53506;BME280;39388;50.936;6.848;2023-03-20T05:09:26;101369.09;;;9.38;80.06
53506;BME280;39388;50.936;6.848;2023-03-20T05:12:59;101359.66;;;9.33;79.97
53506;BME280;39388;50.936;6.848;2023-03-20T05:16:27;101356.16;;;9.28;79.96
53506;BME280;39388;50.936;6.848;2023-03-20T05:19:40;101356.13;;;9.27;79.97
53506;BME280;39388;50.936;6.848;2023-03-20T05:22:12;101314.69;;;9.00;80.20
53506;BME280;39388;50.936;6.848;2023-03-20T05:25:17;101357.75;;;9.18;80.13
53506;BME280;39388;50.936;6.848;2023-03-20T05:31:46;101360.19;;;9.06;80.04
53506;BME280;39388;50.936;6.848;2023-03-20T05:34:17;101351.59;;;9.04;80.19
53506;BME280;39388;50.936;6.848;2023-03-20T05:36:47;101355.84;;;9.02;80.41
53506;BME280;39388;50.936;6.848;2023-03-20T05:39:18;101352.47;;;9.04;80.54
53506;BME280;39388;50.936;6.848;2023-03-20T05:41:48;101361.91;;;9.09;80.82
53506;BME280;39388;50.936;6.848;2023-03-20T05:44:18;101359.34;;;9.07;80.94
53506;BME280;39388;50.936;6.848;2023-03-20T05:46:49;101361.03;;;9.07;80.70
53506;BME280;39388;50.936;6.848;2023-03-20T05:49:19;101367.91;;;9.08;80.79
53506;BME280;39388;50.936;6.848;2023-03-20T05:51:50;101357.56;;;9.03;80.66
53506;BME280;39388;50.936;6.848;2023-03-20T05:54:20;101341.19;;;8.95;80.63
53506;BME280;39388;50.936;6.848;2023-03-20T05:56:50;101348.16;;;9.03;80.48
53506;BME280;39388;50.936;6.848;2023-03-20T05:59:21;101369.69;;;9.13;80.25
53506;BME280;39388;50.936;6.848;2023-03-20T06:01:51;101365.38;;;9.11;80.45
53506;BME280;39388;50.936;6.848;2023-03-20T06:04:21;101385.16;;;9.15;80.25
53506;BME280;39388;50.936;6.848;2023-03-20T06:06:52;101376.56;;;9.13;80.50
53506;BME280;39388;50.936;6.848;2023-03-20T06:09:22;101380.84;;;9.12;80.33
53506;BME280;39388;50.936;6.848;2023-03-20T06:11:53;101385.16;;;9.15;80.47
53506;BME280;39388;50.936;6.848;2023-03-20T06:14:23;101381.75;;;9.16;80.48
53506;BME280;39388;50.936;6.848;2023-03-20T06:16:53;101387.78;;;9.18;80.33
53506;BME280;39388;50.936;6.848;2023-03-20T06:19:24;101372.34;;;9.19;80.40
53506;BME280;39388;50.936;6.848;2023-03-20T06:21:54;101373.22;;;9.23;80.24
53506;BME280;39388;50.936;6.848;2023-03-20T06:24:25;101359.47;;;9.21;80.25
53506;BME280;39388;50.936;6.848;2023-03-20T06:26:55;101382.81;;;9.37;80.17
53506;BME280;39388;50.936;6.848;2023-03-20T06:29:26;101378.59;;;9.40;80.19
53506;BME280;39388;50.936;6.848;2023-03-20T06:31:58;101367.44;;;9.43;79.87
53506;BME280;39388;50.936;6.848;2023-03-20T06:34:28;101378.72;;;9.56;79.76
53506;BME280;39388;50.936;6.848;2023-03-20T06:36:59;101373.66;;;9.63;79.78
53506;BME280;39388;50.936;6.848;2023-03-20T06:39:29;101373.69;;;9.66;79.61
53506;BME280;39388;50.936;6.848;2023-03-20T06:42:00;101367.72;;;9.71;79.54
53506;BME280;39388;50.936;6.848;2023-03-20T06:44:31;101375.47;;;9.75;79.48
53506;BME280;39388;50.936;6.848;2023-03-20T06:47:01;101360.91;;;9.79;79.21
53506;BME280;39388;50.936;6.848;2023-03-20T06:49:32;101373.03;;;9.88;79.34
53506;BME280;39388;50.936;6.848;2023-03-20T06:52:02;101379.94;;;9.89;79.18
53506;BME280;39388;50.936;6.848;2023-03-20T06:54:33;101366.13;;;9.84;79.19
53506;BME280;39388;50.936;6.848;2023-03-20T06:57:03;101379.84;;;9.86;79.31
53506;BME280;39388;50.936;6.848;2023-03-20T06:59:34;101385.00;;;9.84;79.20
53506;BME280;39388;50.936;6.848;2023-03-20T07:02:04;101385.97;;;9.91;79.34
53506;BME280;39388;50.936;6.848;2023-03-20T07:04:35;101382.53;;;9.92;79.18
53506;BME280;39388;50.936;6.848;2023-03-20T07:07:06;101394.63;;;10.02;78.86
53506;BME280;39388;50.936;6.848;2023-03-20T07:09:36;101403.31;;;10.10;78.53
53506;BME280;39388;50.936;6.848;2023-03-20T07:12:16;101414.53;;;10.20;78.35
53506;BME280;39388;50.936;6.848;2023-03-20T07:14:49;101420.63;;;10.29;77.88
53506;BME280;39388;50.936;6.848;2023-03-20T07:17:19;101430.16;;;10.37;77.76
53506;BME280;39388;50.936;6.848;2023-03-20T07:19:49;101429.34;;;10.48;77.44
53506;BME280;39388;50.936;6.848;2023-03-20T07:22:24;101430.25;;;10.53;76.98
53506;BME280;39388;50.936;6.848;2023-03-20T07:24:55;101432.81;;;10.50;76.79
53506;BME280;39388;50.936;6.848;2023-03-20T07:27:26;101432.84;;;10.53;77.01
53506;BME280;39388;50.936;6.848;2023-03-20T07:29:57;101435.38;;;10.51;76.84
53506;BME280;39388;50.936;6.848;2023-03-20T07:32:27;101434.50;;;10.48;76.96
53506;BME280;39388;50.936;6.848;2023-03-20T07:34:57;101446.50;;;10.46;76.73
53506;BME280;39388;50.936;6.848;2023-03-20T07:37:28;101443.06;;;10.44;76.71
53506;BME280;39388;50.936;6.848;2023-03-20T07:39:58;101443.91;;;10.39;76.68
53506;BME280;39388;50.936;6.848;2023-03-20T07:42:29;101445.56;;;10.36;76.64
53506;BME280;39388;50.936;6.848;2023-03-20T07:44:59;101436.16;;;10.38;76.61
53506;BME280;39388;50.936;6.848;2023-03-20T07:47:29;101448.22;;;10.42;76.39
53506;BME280;39388;50.936;6.848;2023-03-20T07:50:00;101433.53;;;10.35;76.43
53506;BME280;39388;50.936;6.848;2023-03-20T07:52:30;101458.59;;;10.50;76.29
53506;BME280;39388;50.936;6.848;2023-03-20T07:55:01;101450.00;;;10.51;76.27
53506;BME280;39388;50.936;6.848;2023-03-20T07:57:32;101450.91;;;10.59;75.97
53506;BME280;39388;50.936;6.848;2023-03-20T08:00:03;101461.28;;;10.67;75.79
53506;BME280;39388;50.936;6.848;2023-03-20T08:02:33;101459.59;;;10.72;75.71
53506;BME280;39388;50.936;6.848;2023-03-20T08:05:04;101465.63;;;10.76;75.04
53506;BME280;39388;50.936;6.848;2023-03-20T08:07:34;101462.22;;;10.81;75.26
53506;BME280;39388;50.936;6.848;2023-03-20T08:10:05;101448.50;;;10.85;74.85
53506;BME280;39388;50.936;6.848;2023-03-20T08:12:36;101465.78;;;10.97;74.22
53506;BME280;39388;50.936;6.848;2023-03-20T08:15:06;101459.78;;;11.03;74.38
53506;BME280;39388;50.936;6.848;2023-03-20T08:17:40;101455.50;;;11.08;73.79
53506;BME280;39388;50.936;6.848;2023-03-20T08:20:12;101447.72;;;11.03;73.98
53506;BME280;39388;50.936;6.848;2023-03-20T08:22:43;101461.53;;;11.15;73.34
53506;BME280;39388;50.936;6.848;2023-03-20T08:25:14;101445.16;;;11.02;73.71
53506;BME280;39388;50.936;6.848;2023-03-20T08:27:44;101466.72;;;11.15;73.29
53506;BME280;39388;50.936;6.848;2023-03-20T08:30:15;101458.13;;;11.21;72.98
53506;BME280;39388;50.936;6.848;2023-03-20T08:32:46;101455.59;;;11.30;72.53
53506;BME280;39388;50.936;6.848;2023-03-20T08:35:16;101454.75;;;11.32;72.24
53506;BME280;39388;50.936;6.848;2023-03-20T08:37:46;101459.06;;;11.38;71.63
53506;BME280;39388;50.936;6.848;2023-03-20T08:40:17;101460.81;;;11.41;71.85
53506;BME280;39388;50.936;6.848;2023-03-20T08:42:47;101465.13;;;11.45;71.70
53506;BME280;39388;50.936;6.848;2023-03-20T08:45:18;101471.19;;;11.53;71.38
53506;BME280;39388;50.936;6.848;2023-03-20T08:47:48;101477.22;;;11.57;70.75
53506;BME280;39388;50.936;6.848;2023-03-20T08:50:19;101472.03;;;11.58;70.56
53506;BME280;39388;50.936;6.848;2023-03-20T08:52:49;101470.38;;;11.67;70.55
53506;BME280;39388;50.936;6.848;2023-03-20T08:55:19;101473.81;;;11.75;69.88
53506;BME280;39388;50.936;6.848;2023-03-20T08:57:50;101467.84;;;11.79;70.29
53506;BME280;39388;50.936;6.848;2023-03-20T09:00:20;101476.44;;;11.87;69.46
53506;BME280;39388;50.936;6.848;2023-03-20T09:02:51;101471.31;;;11.93;69.54
53506;BME280;39388;50.936;6.848;2023-03-20T09:05:21;101469.59;;;11.99;69.74
53506;BME280;39388;50.936;6.848;2023-03-20T09:07:52;101466.13;;;12.00;69.01
53506;BME280;39388;50.936;6.848;2023-03-20T09:10:22;101465.28;;;11.98;68.52
53506;BME280;39388;50.936;6.848;2023-03-20T09:12:52;101470.47;;;11.98;68.19
53506;BME280;39388;50.936;6.848;2023-03-20T09:15:23;101461.84;;;11.92;68.53
53506;BME280;39388;50.936;6.848;2023-03-20T09:17:53;101485.13;;;12.08;68.62
53506;BME280;39388;50.936;6.848;2023-03-20T09:20:23;101473.91;;;12.10;67.97
53506;BME280;39388;50.936;6.848;2023-03-20T09:22:55;101467.03;;;12.08;67.30
53506;BME280;39388;50.936;6.848;2023-03-20T09:25:26;101472.16;;;12.06;67.37
53506;BME280;39388;50.936;6.848;2023-03-20T09:27:56;101476.50;;;12.01;66.86
53506;BME280;39388;50.936;6.848;2023-03-20T09:30:26;101475.66;;;12.05;67.25
53506;BME280;39388;50.936;6.848;2023-03-20T09:32:57;101471.34;;;12.09;66.67
53506;BME280;39388;50.936;6.848;2023-03-20T09:35:27;101475.66;;;12.15;66.29
53506;BME280;39388;50.936;6.848;2023-03-20T09:37:57;101470.44;;;12.13;66.24
53506;BME280;39388;50.936;6.848;2023-03-20T09:40:43;101468.72;;;12.15;66.20
53506;BME280;39388;50.936;6.848;2023-03-20T09:43:49;101462.72;;;12.15;66.07
53506;BME280;39388;50.936;6.848;2023-03-20T09:49:04;101461.84;;;12.36;65.48
53506;BME280;39388;50.936;6.848;2023-03-20T09:51:45;101445.47;;;12.28;65.34
53506;BME280;39388;50.936;6.848;2023-03-20T09:54:25;101473.06;;;12.36;65.03
53506;BME280;39388;50.936;6.848;2023-03-20T09:56:56;101464.44;;;12.30;64.81
53506;BME280;39388;50.936;6.848;2023-03-20T09:59:28;101470.47;;;12.32;65.10
53506;BME280;39388;50.936;6.848;2023-03-20T10:04:35;101473.91;;;12.35;64.82
53506;BME280;39388;50.936;6.848;2023-03-20T10:07:09;101474.78;;;12.36;65.04
53506;BME280;39388;50.936;6.848;2023-03-20T10:09:43;101466.16;;;12.38;65.15
53506;BME280;39388;50.936;6.848;2023-03-20T10:15:45;101470.47;;;12.63;65.22
53506;BME280;39388;50.936;6.848;2023-03-20T10:18:25;101471.31;;;12.66;64.29
53506;BME280;39388;50.936;6.848;2023-03-20T10:21:09;101464.41;;;12.75;64.44
53506;BME280;39388;50.936;6.848;2023-03-20T10:24:04;101467.84;;;12.78;63.91
53506;BME280;39388;50.936;6.848;2023-03-20T10:26:36;101465.25;;;12.78;64.00
53506;BME280;39388;50.936;6.848;2023-03-20T10:32:25;101468.72;;;12.76;63.93
53506;BME280;39388;50.936;6.848;2023-03-20T10:35:22;101479.06;;;12.74;63.81
53506;BME280;39388;50.936;6.848;2023-03-20T10:38:20;101475.63;;;12.64;63.69
53506;BME280;39388;50.936;6.848;2023-03-20T10:40:55;101473.03;;;12.63;64.10
53506;BME280;39388;50.936;6.848;2023-03-20T10:43:31;101471.31;;;12.54;63.49
53506;BME280;39388;50.936;6.848;2023-03-20T10:46:14;101451.50;;;12.44;63.02
53506;BME280;39388;50.936;6.848;2023-03-20T10:49:08;101448.03;;;12.35;61.79
53506;BME280;39388;50.936;6.848;2023-03-20T10:51:48;101453.22;;;12.42;61.57
53506;BME280;39388;50.936;6.848;2023-03-20T10:54:34;101458.41;;;12.43;61.43
53506;BME280;39388;50.936;6.848;2023-03-20T10:57:12;101451.50;;;12.44;60.94
53506;BME280;39388;50.936;6.848;2023-03-20T10:59:48;101452.38;;;12.50;60.47
53506;BME280;39388;50.936;6.848;2023-03-20T11:02:21;101457.53;;;12.53;60.42
53506;BME280;39388;50.936;6.848;2023-03-20T11:04:52;101461.00;;;12.55;60.32
53506;BME280;39388;50.936;6.848;2023-03-20T11:07:27;101457.53;;;12.53;60.15
53506;BME280;39388;50.936;6.848;2023-03-20T11:12:41;101458.41;;;12.57;60.06
53506;BME280;39388;50.936;6.848;2023-03-20T11:15:31;101453.22;;;12.60;59.93
53506;BME280;39388;50.936;6.848;2023-03-20T11:18:04;101448.06;;;12.55;59.98
53506;BME280;39388;50.936;6.848;2023-03-20T11:20:50;101442.91;;;12.48;59.91
53506;BME280;39388;50.936;6.848;2023-03-20T11:23:34;101458.41;;;12.48;59.58
53506;BME280;39388;50.936;6.848;2023-03-20T11:26:06;101453.25;;;12.40;59.70
53506;BME280;39388;50.936;6.848;2023-03-20T11:28:41;101444.63;;;12.38;59.63
53506;BME280;39388;50.936;6.848;2023-03-20T11:33:50;101429.97;;;12.34;59.74
53506;BME280;39388;50.936;6.848;2023-03-20T11:36:24;101429.09;;;12.27;59.95
53506;BME280;39388;50.936;6.848;2023-03-20T11:39:21;101429.97;;;12.26;59.88
53506;BME280;39388;50.936;6.848;2023-03-20T11:41:56;101417.03;;;12.23;60.19
53506;BME280;39388;50.936;6.848;2023-03-20T11:44:33;101423.94;;;12.24;59.83
53506;BME280;39388;50.936;6.848;2023-03-20T11:47:11;101417.03;;;12.28;59.88
53506;BME280;39388;50.936;6.848;2023-03-20T11:49:55;101426.50;;;12.36;60.18
53506;BME280;39388;50.936;6.848;2023-03-20T11:52:38;101413.56;;;12.39;60.37
53506;BME280;39388;50.936;6.848;2023-03-20T11:55:27;101422.19;;;12.51;59.96
53506;BME280;39388;50.936;6.848;2023-03-20T11:58:00;101415.28;;;12.54;60.12
53506;BME280;39388;50.936;6.848;2023-03-20T12:00:37;101423.91;;;12.53;59.72
53506;BME280;39388;50.936;6.848;2023-03-20T12:06:17;101402.34;;;12.56;60.23
53506;BME280;39388;50.936;6.848;2023-03-20T12:09:04;101398.03;;;12.55;59.91
53506;BME280;39388;50.936;6.848;2023-03-20T12:11:55;101406.63;;;12.65;59.52
53506;BME280;39388;50.936;6.848;2023-03-20T12:14:44;101417.00;;;12.62;59.74
53506;BME280;39388;50.936;6.848;2023-03-20T12:17:26;101413.53;;;12.63;59.94
53506;BME280;39388;50.936;6.848;2023-03-20T12:20:02;101417.00;;;12.68;59.66
53506;BME280;39388;50.936;6.848;2023-03-20T12:22:44;101409.22;;;12.63;59.95
53506;BME280;39388;50.936;6.848;2023-03-20T12:25:25;101407.53;;;12.62;59.76
53506;BME280;39388;50.936;6.848;2023-03-20T12:33:40;101397.16;;;12.53;59.93
53506;BME280;39388;50.936;6.848;2023-03-20T12:36:17;101394.59;;;12.53;60.07
53506;BME280;39388;50.936;6.848;2023-03-20T12:38:50;101392.00;;;12.53;60.39
53506;BME280;39388;50.936;6.848;2023-03-20T12:41:28;101384.22;;;12.56;60.40
53506;BME280;39388;50.936;6.848;2023-03-20T12:52:36;101384.19;;;12.75;60.09
53506;BME280;39388;50.936;6.848;2023-03-20T13:00:57;101369.50;;;12.84;59.98
53506;BME280;39388;50.936;6.848;2023-03-20T13:06:52;101361.63;;;13.06;59.80
53506;BME280;39388;50.936;6.848;2023-03-20T13:12:42;101365.13;;;12.96;59.91
53506;BME280;39388;50.936;6.848;2023-03-20T13:15:38;101368.56;;;12.99;59.69
53506;BME280;39388;50.936;6.848;2023-03-20T13:20:51;101360.75;;;13.10;59.52
53506;BME280;39388;50.936;6.848;2023-03-20T13:28:44;101349.47;;;13.24;59.79
53506;BME280;39388;50.936;6.848;2023-03-20T13:31:20;101351.09;;;13.36;60.08
53506;BME280;39388;50.936;6.848;2023-03-20T13:34:04;101339.88;;;13.43;59.50
53506;BME280;39388;50.936;6.848;2023-03-20T13:42:00;101326.91;;;13.46;58.96
53506;BME280;39388;50.936;6.848;2023-03-20T13:44:33;101314.00;;;13.41;58.79
53506;BME280;39388;50.936;6.848;2023-03-20T13:47:30;101335.59;;;13.40;59.00
53506;BME280;39388;50.936;6.848;2023-03-20T13:53:12;101333.91;;;13.27;58.74
53506;BME280;39388;50.936;6.848;2023-03-20T13:56:03;101339.94;;;13.27;58.89
53506;BME280;39388;50.936;6.848;2023-03-20T14:01:37;101324.41;;;13.27;58.92
53506;BME280;39388;50.936;6.848;2023-03-20T14:04:15;101314.06;;;13.24;59.00
53506;BME280;39388;50.936;6.848;2023-03-20T14:06:54;101314.88;;;13.28;59.16
53506;BME280;39388;50.936;6.848;2023-03-20T14:09:36;101315.72;;;13.36;59.10
53506;BME280;39388;50.936;6.848;2023-03-20T14:12:11;101308.81;;;13.41;58.49
53506;BME280;39388;50.936;6.848;2023-03-20T14:14:52;101315.59;;;13.53;58.62
53506;BME280;39388;50.936;6.848;2023-03-20T14:17:26;101306.06;;;13.60;58.53
53506;BME280;39388;50.936;6.848;2023-03-20T14:20:10;101313.78;;;13.69;58.33
53506;BME280;39388;50.936;6.848;2023-03-20T14:22:41;101313.78;;;13.68;58.36
53506;BME280;39388;50.936;6.848;2023-03-20T14:25:16;101319.00;;;13.63;58.63
53506;BME280;39388;50.936;6.848;2023-03-20T14:27:55;101307.78;;;13.61;58.57
53506;BME280;39388;50.936;6.848;2023-03-20T14:41:02;101295.84;;;13.40;58.76
53506;BME280;39388;50.936;6.848;2023-03-20T14:43:54;101299.31;;;13.34;58.72
53506;BME280;39388;50.936;6.848;2023-03-20T14:52:39;101291.66;;;13.15;58.91
53506;BME280;39388;50.936;6.848;2023-03-20T14:57:51;101279.56;;;13.17;59.43
53506;BME280;39388;50.936;6.848;2023-03-20T15:00:26;101283.88;;;13.19;59.42
53506;BME280;39388;50.936;6.848;2023-03-20T15:03:09;101290.78;;;13.20;59.57
53506;BME280;39388;50.936;6.848;2023-03-20T15:05:40;101279.56;;;13.17;59.55
53506;BME280;39388;50.936;6.848;2023-03-20T15:08:23;101285.63;;;13.18;59.84
53506;BME280;39388;50.936;6.848;2023-03-20T15:10:57;101278.75;;;13.14;60.07
53506;BME280;39388;50.936;6.848;2023-03-20T15:13:28;101278.72;;;13.17;60.26
53506;BME280;39388;50.936;6.848;2023-03-20T15:16:05;101283.88;;;13.20;60.28
53506;BME280;39388;50.936;6.848;2023-03-20T15:18:49;101276.09;;;13.19;60.75
53506;BME280;39388;50.936;6.848;2023-03-20T15:21:36;101274.38;;;13.17;60.74
53506;BME280;39388;50.936;6.848;2023-03-20T15:24:07;101275.25;;;13.18;61.00
53506;BME280;39388;50.936;6.848;2023-03-20T15:26:38;101272.66;;;13.16;61.36
53506;BME280;39388;50.936;6.848;2023-03-20T15:29:12;101266.63;;;13.19;60.68
53506;BME280;39388;50.936;6.848;2023-03-20T15:31:45;101266.63;;;13.17;60.89
53506;BME280;39388;50.936;6.848;2023-03-20T15:34:26;101269.25;;;13.13;61.02
53506;BME280;39388;50.936;6.848;2023-03-20T15:36:59;101266.66;;;13.16;61.33
53506;BME280;39388;50.936;6.848;2023-03-20T15:39:42;101245.97;;;13.07;61.65
53506;BME280;39388;50.936;6.848;2023-03-20T15:42:15;101261.41;;;13.22;62.02
53506;BME280;39388;50.936;6.848;2023-03-20T15:44:48;101257.94;;;13.26;62.14
53506;BME280;39388;50.936;6.848;2023-03-20T15:47:23;101259.63;;;13.30;62.46
53506;BME280;39388;50.936;6.848;2023-03-20T15:49:54;101232.97;;;13.17;62.35
53506;BME280;39388;50.936;6.848;2023-03-20T15:52:51;101246.69;;;13.29;62.01
53506;BME280;39388;50.936;6.848;2023-03-20T15:55:22;101251.84;;;13.29;61.83
53506;BME280;39388;50.936;6.848;2023-03-20T15:57:58;101247.56;;;13.26;61.23
53506;BME280;39388;50.936;6.848;2023-03-20T16:00:38;101254.44;;;13.34;61.56
53506;BME280;39388;50.936;6.848;2023-03-20T16:03:14;101250.09;;;13.34;61.27
53506;BME280;39388;50.936;6.848;2023-03-20T16:05:48;101244.06;;;13.32;60.89
53506;BME280;39388;50.936;6.848;2023-03-20T16:08:28;101239.78;;;13.29;61.07
53506;BME280;39388;50.936;6.848;2023-03-20T16:11:02;101235.50;;;13.25;61.03
53506;BME280;39388;50.936;6.848;2023-03-20T16:13:39;101236.38;;;13.23;61.00
53506;BME280;39388;50.936;6.848;2023-03-20T16:16:13;101240.69;;;13.22;60.64
53506;BME280;39388;50.936;6.848;2023-03-20T16:18:45;101219.19;;;13.14;60.50
53506;BME280;39388;50.936;6.848;2023-03-20T16:21:20;101230.34;;;13.21;60.78
53506;BME280;39388;50.936;6.848;2023-03-20T16:23:54;101222.59;;;13.21;60.89
53506;BME280;39388;50.936;6.848;2023-03-20T16:26:26;101211.41;;;13.14;60.96
53506;BME280;39388;50.936;6.848;2023-03-20T16:28:58;101210.56;;;13.12;60.94
53506;BME280;39388;50.936;6.848;2023-03-20T16:31:35;101226.94;;;13.17;60.96
53506;BME280;39388;50.936;6.848;2023-03-20T16:34:23;101218.31;;;13.13;60.88
53506;BME280;39388;50.936;6.848;2023-03-20T16:36:57;101225.25;;;13.11;60.69
53506;BME280;39388;50.936;6.848;2023-03-20T16:39:29;101224.38;;;13.08;60.52
53506;BME280;39388;50.936;6.848;2023-03-20T16:42:23;101231.34;;;13.06;60.25
53506;BME280;39388;50.936;6.848;2023-03-20T16:44:55;101222.69;;;13.05;60.24
53506;BME280;39388;50.936;6.848;2023-03-20T16:47:34;101219.22;;;13.08;60.33
53506;BME280;39388;50.936;6.848;2023-03-20T16:50:12;101223.56;;;13.06;60.59
53506;BME280;39388;50.936;6.848;2023-03-20T16:52:55;101227.88;;;13.02;60.42
53506;BME280;39388;50.936;6.848;2023-03-20T16:55:28;101221.00;;;12.99;60.46
53506;BME280;39388;50.936;6.848;2023-03-20T16:58:03;101221.03;;;12.95;60.56
53506;BME280;39388;50.936;6.848;2023-03-20T17:00:43;101223.63;;;12.93;60.42
53506;BME280;39388;50.936;6.848;2023-03-20T17:03:17;101229.66;;;12.92;60.59
53506;BME280;39388;50.936;6.848;2023-03-20T17:05:57;101221.94;;;12.88;60.93
53506;BME280;39388;50.936;6.848;2023-03-20T17:08:33;101211.63;;;12.83;60.95
53506;BME280;39388;50.936;6.848;2023-03-20T17:11:10;101222.81;;;12.86;61.02
53506;BME280;39388;50.936;6.848;2023-03-20T17:13:41;101223.69;;;12.87;61.14
53506;BME280;39388;50.936;6.848;2023-03-20T17:16:15;101226.25;;;12.85;60.99
53506;BME280;39388;50.936;6.848;2023-03-20T17:18:58;101222.84;;;12.79;61.15
53506;BME280;39388;50.936;6.848;2023-03-20T17:21:28;101232.34;;;12.78;61.65
53506;BME280;39388;50.936;6.848;2023-03-20T17:23:59;101225.47;;;12.74;61.87
53506;BME280;39388;50.936;6.848;2023-03-20T17:26:30;101228.97;;;12.65;61.75
53506;BME280;39388;50.936;6.848;2023-03-20T17:29:00;101236.72;;;12.65;61.78
53506;BME280;39388;50.936;6.848;2023-03-20T17:31:30;101235.06;;;12.58;61.84
53506;BME280;39388;50.936;6.848;2023-03-20T17:34:01;101241.94;;;12.61;62.20
53506;BME280;39388;50.936;6.848;2023-03-20T17:36:33;101239.34;;;12.61;62.34
53506;BME280;39388;50.936;6.848;2023-03-20T17:39:04;101249.69;;;12.58;62.16
53506;BME280;39388;50.936;6.848;2023-03-20T17:41:34;101235.13;;;12.43;62.08
53506;BME280;39388;50.936;6.848;2023-03-20T17:44:04;101250.59;;;12.50;61.73
53506;BME280;39388;50.936;6.848;2023-03-20T17:46:35;101250.63;;;12.46;61.93
53506;BME280;39388;50.936;6.848;2023-03-20T17:49:11;101251.47;;;12.43;62.15
53506;BME280;39388;50.936;6.848;2023-03-20T17:51:42;101263.56;;;12.39;61.96
53506;BME280;39388;50.936;6.848;2023-03-20T17:54:12;101262.72;;;12.33;62.56
53506;BME280;39388;50.936;6.848;2023-03-20T17:56:43;101250.69;;;12.24;62.50
53506;BME280;39388;50.936;6.848;2023-03-20T17:59:13;101265.34;;;12.28;61.96
53506;BME280;39388;50.936;6.848;2023-03-20T18:01:44;101262.78;;;12.27;62.20
53506;BME280;39388;50.936;6.848;2023-03-20T18:04:14;101255.88;;;12.22;61.92
53506;BME280;39388;50.936;6.848;2023-03-20T18:06:45;101259.28;;;12.28;62.35
53506;BME280;39388;50.936;6.848;2023-03-20T18:09:15;101242.13;;;12.19;62.40
53506;BME280;39388;50.936;6.848;2023-03-20T18:11:46;101252.44;;;12.20;62.41
53506;BME280;39388;50.936;6.848;2023-03-20T18:14:16;101253.28;;;12.22;62.26
53506;BME280;39388;50.936;6.848;2023-03-20T18:16:48;101243.84;;;12.20;62.62
53506;BME280;39388;50.936;6.848;2023-03-20T18:19:27;101249.00;;;12.21;62.23
53506;BME280;39388;50.936;6.848;2023-03-20T18:21:58;101253.31;;;12.19;61.99
53506;BME280;39388;50.936;6.848;2023-03-20T18:24:29;101239.53;;;12.13;62.40
53506;BME280;39388;50.936;6.848;2023-03-20T18:26:59;101249.84;;;12.17;62.31
53506;BME280;39388;50.936;6.848;2023-03-20T18:29:30;101254.19;;;12.20;62.48
53506;BME280;39388;50.936;6.848;2023-03-20T18:32:00;101249.88;;;12.13;62.18
53506;BME280;39388;50.936;6.848;2023-03-20T18:34:31;101259.34;;;12.17;62.25
53506;BME280;39388;50.936;6.848;2023-03-20T18:37:02;101255.03;;;12.16;62.00
53506;BME280;39388;50.936;6.848;2023-03-20T18:39:36;101250.72;;;12.12;61.84
53506;BME280;39388;50.936;6.848;2023-03-20T18:42:06;101249.88;;;12.11;61.62